createdAt,value
2019-02-09T00:00:53.904Z,99635.19
2019-02-09T00:03:21.655Z,99624.28
2019-02-09T00:05:49.421Z,99623.05
2019-02-09T00:08:17.206Z,99621.30
2019-02-09T00:10:45.022Z,99620.48
2019-02-09T00:13:12.783Z,99615.02
2019-02-09T00:15:40.786Z,99615.13
2019-02-09T00:18:08.554Z,99611.84
2019-02-09T00:20:36.315Z,99613.17
2019-02-09T00:23:04.854Z,99604.94
2019-02-09T00:25:32.667Z,99605.27
2019-02-09T00:28:00.468Z,99600.13
2019-02-09T00:30:28.208Z,99600.53
2019-02-09T00:32:56.018Z,99593.31
2019-02-09T00:35:23.791Z,99597.11
2019-02-09T00:37:51.571Z,99588.17
2019-02-09T00:40:19.536Z,99581.06
2019-02-09T00:42:47.345Z,99580.02
2019-02-09T00:45:15.679Z,99573.93
2019-02-09T00:47:43.464Z,99571.04
2019-02-09T00:50:12.338Z,99565.55
2019-02-09T00:52:40.120Z,99560.95
2019-02-09T00:55:08.996Z,99561.43
2019-02-09T00:57:36.758Z,99559.16
2019-02-09T01:00:15.435Z,99556.08
2019-02-09T01:02:43.194Z,99548.81
2019-02-09T01:05:12.552Z,99556.20
2019-02-09T01:07:40.297Z,99550.63
2019-02-09T01:10:10.798Z,99532.78
2019-02-09T01:12:38.573Z,99538.72
2019-02-09T01:15:09.653Z,99529.45
2019-02-09T01:17:37.436Z,99532.52
2019-02-09T01:20:08.388Z,99519.23
2019-02-09T01:22:36.188Z,99522.17
2019-02-09T01:25:05.237Z,99527.35
2019-02-09T01:27:33.066Z,99517.57
2019-02-09T01:30:02.510Z,99518.55
2019-02-09T01:32:30.476Z,99518.47
2019-02-09T01:34:58.202Z,99518.25
2019-02-09T01:37:25.993Z,99507.75
2019-02-09T01:39:53.757Z,99501.00
2019-02-09T01:42:21.649Z,99491.28
2019-02-09T01:44:49.409Z,99489.27
2019-02-09T01:47:17.205Z,99495.96
2019-02-09T01:49:44.941Z,99471.80
2019-02-09T01:52:12.735Z,99478.02
2019-02-09T01:54:40.534Z,99473.88
2019-02-09T01:57:08.280Z,99471.75
2019-02-09T01:59:36.027Z,99465.11
2019-02-09T02:02:04.248Z,99453.89
2019-02-09T02:04:32.157Z,99458.25
2019-02-09T02:06:59.985Z,99456.67
2019-02-09T02:09:27.769Z,99459.03
2019-02-09T02:11:55.521Z,99455.62
2019-02-09T02:14:23.300Z,99448.97
2019-02-09T02:16:51.053Z,99451.25
2019-02-09T02:19:18.848Z,99437.11
2019-02-09T02:21:46.605Z,99439.13
2019-02-09T02:24:14.360Z,99422.63
2019-02-09T02:26:42.133Z,99419.16
2019-02-09T02:29:09.898Z,99407.55
2019-02-09T02:31:37.660Z,99414.06
2019-02-09T02:34:05.398Z,99404.26
2019-02-09T02:36:33.164Z,99390.48
2019-02-09T02:39:00.887Z,99385.09
2019-02-09T02:41:28.694Z,99374.22
2019-02-09T02:43:56.478Z,99379.93
2019-02-09T02:46:24.234Z,99380.72
2019-02-09T02:48:52.008Z,99370.44
2019-02-09T02:51:20.023Z,99363.07
2019-02-09T02:53:47.766Z,99361.02
2019-02-09T02:56:15.512Z,99362.46
2019-02-09T02:58:43.268Z,99350.80
2019-02-09T03:01:11.036Z,99346.35
2019-02-09T03:03:38.775Z,99339.92
2019-02-09T03:06:06.810Z,99347.80
2019-02-09T03:08:34.546Z,99332.29
2019-02-09T03:11:02.292Z,99314.23
2019-02-09T03:13:30.064Z,99304.86
2019-02-09T03:15:57.817Z,99292.98
2019-02-09T03:18:25.574Z,99296.04
2019-02-09T03:20:53.344Z,99290.85
2019-02-09T03:23:21.194Z,99290.02
2019-02-09T03:25:49.236Z,99298.88
2019-02-09T03:28:16.967Z,99271.98
2019-02-09T03:30:48.308Z,99293.91
2019-02-09T03:33:14.360Z,99295.70
2019-02-09T03:35:42.095Z,99295.52
2019-02-09T03:38:09.854Z,99281.13
2019-02-09T03:40:37.603Z,99296.15
2019-02-09T03:43:05.341Z,99292.96
2019-02-09T03:45:33.310Z,99284.09
2019-02-09T03:48:01.594Z,99281.80
2019-02-09T03:50:30.562Z,99272.66
2019-02-09T03:52:58.904Z,99267.74
2019-02-09T03:55:26.847Z,99274.73
2019-02-09T03:57:54.717Z,99262.95
2019-02-09T04:00:25.056Z,99267.58
2019-02-09T04:02:53.107Z,99261.62
2019-02-09T04:05:21.041Z,99268.03
2019-02-09T04:07:48.921Z,99257.83
2019-02-09T04:10:19.141Z,99255.69
2019-02-09T04:12:46.901Z,99252.47
2019-02-09T04:15:17.609Z,99253.08
2019-02-09T04:17:45.501Z,99273.61
2019-02-09T04:20:14.731Z,99267.45
2019-02-09T04:22:42.644Z,99279.06
2019-02-09T04:25:12.433Z,99271.31
2019-02-09T04:27:40.221Z,99277.18
2019-02-09T04:30:22.758Z,99269.17
2019-02-09T04:32:50.543Z,99257.25
2019-02-09T04:35:18.290Z,99254.35
2019-02-09T04:37:46.031Z,99261.81
2019-02-09T04:40:17.464Z,99261.87
2019-02-09T04:42:45.229Z,99260.06
2019-02-09T04:45:13.942Z,99258.15
2019-02-09T04:47:41.716Z,99254.70
2019-02-09T04:50:09.911Z,99258.02
2019-02-09T04:52:37.676Z,99253.49
2019-02-09T04:55:08.290Z,99252.02
2019-02-09T04:57:36.054Z,99252.76
2019-02-09T05:00:05.443Z,99256.43
2019-02-09T05:02:33.178Z,99263.73
2019-02-09T05:05:00.969Z,99245.55
2019-02-09T05:07:28.763Z,99246.39
2019-02-09T05:09:56.548Z,99241.75
2019-02-09T05:12:24.317Z,99250.47
2019-02-09T05:14:52.083Z,99254.43
2019-02-09T05:17:20.024Z,99253.84
2019-02-09T05:19:50.338Z,99254.66
2019-02-09T05:22:18.092Z,99258.67
2019-02-09T05:24:45.876Z,99263.66
2019-02-09T05:27:13.785Z,99260.38
2019-02-09T05:29:41.617Z,99262.97
2019-02-09T05:32:09.407Z,99264.25
2019-02-09T05:34:37.170Z,99261.49
2019-02-09T05:37:04.929Z,99256.88
2019-02-09T05:39:33.834Z,99252.70
2019-02-09T05:42:01.800Z,99248.06
2019-02-09T05:44:29.815Z,99247.27
2019-02-09T05:46:57.625Z,99240.98
2019-02-09T05:49:25.403Z,99246.23
2019-02-09T05:51:53.143Z,99237.70
2019-02-09T05:54:20.888Z,99243.15
2019-02-09T05:56:48.681Z,99252.25
2019-02-09T05:59:16.432Z,99256.42
2019-02-09T06:01:44.207Z,99253.68
2019-02-09T06:04:11.965Z,99241.30
2019-02-09T06:06:39.730Z,99223.87
2019-02-09T06:09:07.757Z,99230.57
2019-02-09T06:11:35.678Z,99253.52
2019-02-09T06:14:04.115Z,99230.45
2019-02-09T06:16:31.880Z,99238.05
2019-02-09T06:18:59.992Z,99258.52
2019-02-09T06:21:30.115Z,99253.22
2019-02-09T06:23:57.872Z,99265.67
2019-02-09T06:26:25.639Z,99277.96
2019-02-09T06:28:53.471Z,99269.62
2019-02-09T06:31:21.269Z,99266.34
2019-02-09T06:33:49.124Z,99267.45
2019-02-09T06:36:16.870Z,99255.33
2019-02-09T06:38:44.636Z,99255.75
2019-02-09T06:41:12.395Z,99261.72
2019-02-09T06:43:40.184Z,99260.61
2019-02-09T06:46:07.959Z,99250.17
2019-02-09T06:48:35.834Z,99251.53
2019-02-09T06:51:04.374Z,99262.55
2019-02-09T06:53:32.166Z,99262.37
2019-02-09T06:56:00.208Z,99266.40
2019-02-09T06:58:27.998Z,99280.02
2019-02-09T07:00:55.762Z,99281.38
2019-02-09T07:03:23.549Z,99282.86
2019-02-09T07:05:51.292Z,99269.39
2019-02-09T07:08:19.066Z,99270.73
2019-02-09T07:10:46.865Z,99266.19
2019-02-09T07:13:14.620Z,99275.52
2019-02-09T07:15:42.408Z,99276.45
2019-02-09T07:18:10.203Z,99290.08
2019-02-09T07:20:37.993Z,99305.17
2019-02-09T07:23:06.112Z,99312.77
2019-02-09T07:25:33.924Z,99321.38
2019-02-09T07:28:01.798Z,99318.57
2019-02-09T07:30:29.688Z,99315.03
2019-02-09T07:32:58.220Z,99324.80
2019-02-09T07:35:26.277Z,99332.38
2019-02-09T07:37:54.135Z,99336.41
2019-02-09T07:40:22.605Z,99350.95
2019-02-09T07:42:50.431Z,99341.75
2019-02-09T07:45:21.161Z,99344.27
2019-02-09T07:47:48.946Z,99337.09
2019-02-09T07:50:17.683Z,99339.77
2019-02-09T07:52:45.476Z,99334.55
2019-02-09T07:55:14.005Z,99329.46
2019-02-09T07:57:41.843Z,99324.50
2019-02-09T08:00:17.051Z,99318.40
2019-02-09T08:02:44.941Z,99321.88
2019-02-09T08:05:13.143Z,99323.53
2019-02-09T08:07:40.947Z,99329.13
2019-02-09T08:10:13.225Z,99331.13
2019-02-09T08:12:41.183Z,99342.59
2019-02-09T08:15:14.429Z,99348.26
2019-02-09T08:17:42.255Z,99353.71
2019-02-09T08:20:12.201Z,99375.60
2019-02-09T08:22:40.020Z,99361.70
2019-02-09T08:25:11.135Z,99354.75
2019-02-09T08:27:38.939Z,99363.13
2019-02-09T08:30:09.403Z,99360.13
2019-02-09T08:32:37.226Z,99351.63
2019-02-09T08:35:05.490Z,99357.91
2019-02-09T08:37:33.363Z,99374.20
2019-02-09T08:40:01.171Z,99368.89
2019-02-09T08:42:28.998Z,99371.25
2019-02-09T08:44:59.133Z,99379.52
2019-02-09T08:47:26.953Z,99371.59
2019-02-09T08:49:54.818Z,99374.28
2019-02-09T08:52:22.632Z,99372.09
2019-02-09T08:54:51.576Z,99374.68
2019-02-09T08:57:19.366Z,99372.09
2019-02-09T08:59:48.332Z,99358.22
2019-02-09T09:02:20.663Z,99365.71
2019-02-09T09:04:50.296Z,99366.06
2019-02-09T09:07:18.304Z,99369.55
2019-02-09T09:09:46.134Z,99369.13
2019-02-09T09:12:14.014Z,99384.31
2019-02-09T09:14:41.901Z,99380.56
2019-02-09T09:17:09.766Z,99387.77
2019-02-09T09:19:37.671Z,99379.17
2019-02-09T09:22:05.504Z,99388.91
2019-02-09T09:24:33.371Z,99391.04
2019-02-09T09:27:01.304Z,99379.22
2019-02-09T09:29:29.291Z,99383.37
2019-02-09T09:31:57.166Z,99385.34
2019-02-09T09:34:25.147Z,99391.39
2019-02-09T09:36:53.103Z,99386.59
2019-02-09T09:39:20.956Z,99392.20
2019-02-09T09:41:48.730Z,99396.39
2019-02-09T09:44:16.539Z,99394.23
2019-02-09T09:46:44.453Z,99401.78
2019-02-09T09:49:13.945Z,99406.36
2019-02-09T09:51:41.933Z,99405.38
2019-02-09T09:54:09.817Z,99408.95
2019-02-09T09:56:37.797Z,99425.05
2019-02-09T09:59:05.717Z,99416.50
2019-02-09T10:01:33.550Z,99419.30
2019-02-09T10:04:01.407Z,99426.96
2019-02-09T10:06:29.399Z,99438.17
2019-02-09T10:08:57.826Z,99435.92
2019-02-09T10:11:25.646Z,99413.98
2019-02-09T10:13:53.531Z,99419.75
2019-02-09T10:16:21.275Z,99421.20
2019-02-09T10:18:49.186Z,99429.14
2019-02-09T10:21:17.093Z,99419.31
2019-02-09T10:23:45.431Z,99438.19
2019-02-09T10:26:13.321Z,99445.03
2019-02-09T10:28:41.376Z,99457.06
2019-02-09T10:31:09.213Z,99454.36
2019-02-09T10:33:37.017Z,99453.16
2019-02-09T10:36:04.830Z,99464.62
2019-02-09T10:38:32.698Z,99470.42
2019-02-09T10:41:00.388Z,99476.42
2019-02-09T10:43:28.172Z,99490.80
2019-02-09T10:45:55.945Z,99487.70
2019-02-09T10:48:23.845Z,99489.98
2019-02-09T10:50:51.663Z,99479.78
2019-02-09T10:53:19.491Z,99487.28
2019-02-09T10:55:47.228Z,99494.91
2019-02-09T10:58:15.052Z,99478.69
2019-02-09T11:00:57.046Z,99480.73
2019-02-09T11:03:24.828Z,99472.61
2019-02-09T11:05:52.656Z,99480.55
2019-02-09T11:08:20.490Z,99491.03
2019-02-09T11:10:48.363Z,99493.08
2019-02-09T11:13:16.142Z,99481.05
2019-02-09T11:15:44.030Z,99474.80
2019-02-09T11:18:11.904Z,99485.75
2019-02-09T11:20:39.676Z,99489.34
2019-02-09T11:23:07.419Z,99494.72
2019-02-09T11:25:35.325Z,99496.57
2019-02-09T11:28:03.204Z,99485.91
2019-02-09T11:30:31.250Z,99490.53
2019-02-09T11:33:02.013Z,99482.23
2019-02-09T11:35:29.775Z,99467.27
2019-02-09T11:37:57.621Z,99479.42
2019-02-09T11:40:25.431Z,99478.11
2019-02-09T11:42:53.570Z,99484.80
2019-02-09T11:45:24.493Z,99478.50
2019-02-09T11:47:52.307Z,99474.72
2019-02-09T11:50:20.820Z,99505.42
2019-02-09T11:52:48.677Z,99504.95
2019-02-09T11:55:17.165Z,99510.31
2019-02-09T11:57:45.686Z,99506.91
2019-02-09T12:00:22.535Z,99500.56
2019-02-09T12:02:50.492Z,99504.73
2019-02-09T12:05:18.357Z,99495.56
2019-02-09T12:07:46.113Z,99508.93
2019-02-09T12:10:14.437Z,99492.06
2019-02-09T12:12:42.212Z,99496.13
2019-02-09T12:15:15.095Z,99488.59
2019-02-09T12:17:43.374Z,99505.20
2019-02-09T12:20:13.570Z,99492.79
2019-02-09T12:22:41.306Z,99489.82
2019-02-09T12:25:14.507Z,99495.70
2019-02-09T12:27:42.270Z,99500.88
2019-02-09T12:30:17.012Z,99496.39
2019-02-09T12:32:44.799Z,99495.44
2019-02-09T12:35:13.368Z,99497.97
2019-02-09T12:37:41.124Z,99488.78
2019-02-09T12:40:15.818Z,99491.61
2019-02-09T12:42:43.598Z,99493.62
2019-02-09T12:45:13.496Z,99484.47
2019-02-09T12:47:41.230Z,99497.01
2019-02-09T12:50:10.911Z,99504.43
2019-02-09T12:52:38.688Z,99497.58
2019-02-09T12:55:06.701Z,99491.34
2019-02-09T12:57:34.465Z,99498.34
2019-02-09T13:00:03.345Z,99515.75
2019-02-09T13:02:31.150Z,99490.29
2019-02-09T13:04:58.956Z,99510.77
2019-02-09T13:07:28.172Z,99515.50
2019-02-09T13:09:55.997Z,99514.70
2019-02-09T13:12:23.796Z,99507.24
2019-02-09T13:14:51.584Z,99511.55
2019-02-09T13:17:19.374Z,99511.77
2019-02-09T13:19:47.187Z,99519.31
2019-02-09T13:22:14.932Z,99525.12
2019-02-09T13:24:42.734Z,99502.83
2019-02-09T13:27:10.518Z,99518.86
2019-02-09T13:29:38.339Z,99516.73
2019-02-09T13:32:06.189Z,99516.91
2019-02-09T13:34:34.001Z,99519.23
2019-02-09T13:37:01.805Z,99513.37
2019-02-09T13:39:29.601Z,99527.52
2019-02-09T13:41:57.391Z,99518.70
2019-02-09T13:44:25.477Z,99527.70
2019-02-09T13:46:53.337Z,99520.26
2019-02-09T13:49:21.171Z,99515.67
2019-02-09T13:51:48.953Z,99524.62
2019-02-09T13:54:16.733Z,99536.47
2019-02-09T13:56:44.529Z,99542.02
2019-02-09T13:59:12.369Z,99538.45
2019-02-09T14:01:40.119Z,99544.71
2019-02-09T14:04:07.891Z,99536.52
2019-02-09T14:06:35.667Z,99536.34
2019-02-09T14:09:06.678Z,99530.86
2019-02-09T14:11:34.464Z,99540.56
2019-02-09T14:14:02.339Z,99532.64
2019-02-09T14:16:30.125Z,99537.55
2019-02-09T14:18:57.945Z,99532.34
2019-02-09T14:21:26.547Z,99546.55
2019-02-09T14:23:54.367Z,99549.47
2019-02-09T14:26:22.129Z,99562.28
2019-02-09T14:28:49.926Z,99563.48
2019-02-09T14:31:17.706Z,99553.39
2019-02-09T14:33:45.448Z,99561.87
2019-02-09T14:36:13.263Z,99540.71
2019-02-09T14:38:41.053Z,99549.14
2019-02-09T14:41:08.961Z,99547.62
2019-02-09T14:43:36.795Z,99551.56
2019-02-09T14:46:04.712Z,99549.70
2019-02-09T14:48:32.522Z,99558.28
2019-02-09T14:51:00.424Z,99557.31
2019-02-09T14:53:30.407Z,99558.48
2019-02-09T14:55:58.404Z,99564.83
2019-02-09T14:58:26.343Z,99560.69
2019-02-09T15:00:54.437Z,99561.09
2019-02-09T15:03:27.220Z,99565.94
2019-02-09T15:05:52.322Z,99560.73
2019-02-09T15:08:20.155Z,99563.91
2019-02-09T15:10:48.068Z,99572.20
2019-02-09T15:13:16.715Z,99557.29
2019-02-09T15:16:14.767Z,99567.31
2019-02-09T15:18:42.552Z,99555.94
2019-02-09T15:21:10.561Z,99558.37
2019-02-09T15:23:39.217Z,99558.31
2019-02-09T15:26:07.433Z,99564.12
2019-02-09T15:28:35.238Z,99558.48
2019-02-09T15:31:05.025Z,99559.97
2019-02-09T15:33:33.000Z,99554.38
2019-02-09T15:36:00.809Z,99558.01
2019-02-09T15:38:29.957Z,99562.28
2019-02-09T15:40:57.743Z,99564.61
2019-02-09T15:43:25.557Z,99555.61
2019-02-09T15:45:53.331Z,99560.55
2019-02-09T15:48:22.388Z,99566.13
2019-02-09T15:50:50.759Z,99561.84
2019-02-09T15:53:18.787Z,99571.19
2019-02-09T15:55:46.609Z,99562.92
2019-02-09T15:58:14.377Z,99553.86
2019-02-09T16:00:42.163Z,99557.45
2019-02-09T16:03:09.922Z,99561.52
2019-02-09T16:05:37.761Z,99562.64
2019-02-09T16:08:06.786Z,99568.95
2019-02-09T16:10:34.566Z,99574.58
2019-02-09T16:13:02.399Z,99576.92
2019-02-09T16:15:30.337Z,99584.02
2019-02-09T16:17:58.233Z,99582.70
2019-02-09T16:20:26.149Z,99584.95
2019-02-09T16:22:54.252Z,99580.84
2019-02-09T16:25:22.485Z,99586.78
2019-02-09T16:27:50.367Z,99589.83
2019-02-09T16:30:20.753Z,99582.67
2019-02-09T16:32:48.657Z,99586.91
2019-02-09T16:35:18.033Z,99585.59
2019-02-09T16:37:46.022Z,99590.41
2019-02-09T16:40:17.018Z,99592.16
2019-02-09T16:42:44.975Z,99596.27
2019-02-09T16:45:19.763Z,99598.70
2019-02-09T16:47:47.703Z,99594.38
2019-02-09T16:50:16.067Z,99609.23
2019-02-09T16:52:43.892Z,99611.12
2019-02-09T16:55:13.100Z,99612.16
2019-02-09T16:57:40.913Z,99613.94
2019-02-09T17:00:13.810Z,99621.94
2019-02-09T17:02:41.605Z,99621.10
2019-02-09T17:05:10.178Z,99615.84
2019-02-09T17:07:38.371Z,99621.73
2019-02-09T17:10:06.948Z,99624.59
2019-02-09T17:12:35.880Z,99631.70
2019-02-09T17:15:05.587Z,99631.56
2019-02-09T17:17:33.364Z,99643.45
2019-02-09T17:20:02.448Z,99648.48
2019-02-09T17:22:30.187Z,99634.06
2019-02-09T17:24:57.965Z,99642.64
2019-02-09T17:27:26.060Z,99641.76
2019-02-09T17:29:53.826Z,99636.53
2019-02-09T17:32:21.591Z,99641.67
2019-02-09T17:34:49.426Z,99651.17
2019-02-09T17:37:17.247Z,99653.06
2019-02-09T17:39:45.122Z,99657.61
2019-02-09T17:42:13.082Z,99659.92
2019-02-09T17:44:40.953Z,99671.88
2019-02-09T17:47:08.813Z,99667.17
2019-02-09T17:49:36.618Z,99663.37
2019-02-09T17:52:04.522Z,99662.16
2019-02-09T17:54:32.331Z,99667.25
2019-02-09T17:57:00.109Z,99665.89
2019-02-09T17:59:28.111Z,99674.08
2019-02-09T18:01:55.882Z,99670.86
2019-02-09T18:04:23.677Z,99681.98
2019-02-09T18:06:51.459Z,99688.42
2019-02-09T18:09:19.233Z,99697.08
2019-02-09T18:11:47.106Z,99694.37
2019-02-09T18:14:14.981Z,99686.78
2019-02-09T18:16:42.814Z,99687.36
2019-02-09T18:19:10.582Z,99681.55
2019-02-09T18:21:38.397Z,99692.80
2019-02-09T18:24:06.189Z,99683.11
2019-02-09T18:26:33.949Z,99682.89
2019-02-09T18:29:01.786Z,99683.05
2019-02-09T18:31:29.688Z,99680.30
2019-02-09T18:33:57.529Z,99679.91
2019-02-09T18:36:25.351Z,99673.48
2019-02-09T18:38:53.101Z,99675.09
2019-02-09T18:41:20.903Z,99670.23
2019-02-09T18:43:48.871Z,99677.16
2019-02-09T18:46:16.649Z,99671.47
2019-02-09T18:48:44.583Z,99668.17
2019-02-09T18:51:12.445Z,99673.14
2019-02-09T18:53:40.237Z,99677.32
2019-02-09T18:56:08.045Z,99677.89
2019-02-09T18:58:35.853Z,99680.31
2019-02-09T19:01:04.524Z,99686.58
2019-02-09T19:03:32.396Z,99682.05
2019-02-09T19:06:00.152Z,99688.09
2019-02-09T19:08:27.935Z,99673.38
2019-02-09T19:10:55.798Z,99666.41
2019-02-09T19:13:23.630Z,99667.63
2019-02-09T19:15:51.512Z,99681.87
2019-02-09T19:18:19.283Z,99684.56
2019-02-09T19:20:51.854Z,99689.36
2019-02-09T19:23:19.647Z,99689.66
2019-02-09T19:25:50.510Z,99685.58
2019-02-09T19:28:18.314Z,99691.66
2019-02-09T19:30:46.232Z,99694.08
2019-02-09T19:33:13.962Z,99693.23
2019-02-09T19:35:41.751Z,99692.22
2019-02-09T19:38:09.543Z,99694.34
2019-02-09T19:40:37.306Z,99691.17
2019-02-09T19:43:05.438Z,99696.98
2019-02-09T19:45:33.436Z,99698.89
2019-02-09T19:48:01.294Z,99702.12
2019-02-09T19:50:29.209Z,99705.03
2019-02-09T19:52:57.150Z,99717.03
2019-02-09T19:55:27.049Z,99723.38
2019-02-09T19:57:54.947Z,99725.55
2019-02-09T20:00:28.633Z,99726.69
2019-02-09T20:02:56.513Z,99727.41
2019-02-09T20:05:24.465Z,99743.67
2019-02-09T20:07:55.475Z,99744.55
2019-02-09T20:10:27.533Z,99740.96
2019-02-09T20:12:58.134Z,99750.53
2019-02-09T20:15:26.019Z,99760.83
2019-02-09T20:17:53.892Z,99764.34
2019-02-09T20:20:21.853Z,99760.50
2019-02-09T20:22:49.641Z,99759.95
2019-02-09T20:25:19.535Z,99768.53
2019-02-09T20:27:47.514Z,99760.91
2019-02-09T20:30:21.403Z,99773.21
2019-02-09T20:32:52.779Z,99764.81
2019-02-09T20:35:27.843Z,99760.98
2019-02-09T20:37:54.144Z,99765.95
2019-02-09T20:40:28.300Z,99763.59
2019-02-09T20:43:02.786Z,99765.37
2019-02-09T20:45:26.952Z,99773.67
2019-02-09T20:47:54.830Z,99776.97
2019-02-09T20:50:22.908Z,99773.19
2019-02-09T20:52:50.739Z,99778.16
2019-02-09T20:55:19.839Z,99782.80
2019-02-09T20:57:47.728Z,99787.65
2019-02-09T21:00:18.533Z,99788.37
2019-02-09T21:02:46.672Z,99786.60
2019-02-09T21:05:15.148Z,99787.22
2019-02-09T21:07:44.727Z,99792.29
2019-02-09T21:10:18.668Z,99790.89
2019-02-09T21:12:46.518Z,99781.22
2019-02-09T21:15:15.055Z,99790.64
2019-02-09T21:17:42.853Z,99779.47
2019-02-09T21:20:11.227Z,99783.80
2019-02-09T21:22:39.422Z,99782.03
2019-02-09T21:25:11.832Z,99773.70
2019-02-09T21:27:39.712Z,99782.95
2019-02-09T21:30:09.001Z,99783.14
2019-02-09T21:32:40.362Z,99793.25
2019-02-09T21:35:07.836Z,99790.56
2019-02-09T21:37:35.868Z,99792.71
2019-02-09T21:40:05.738Z,99801.61
2019-02-09T21:42:33.546Z,99803.58
2019-02-09T21:45:01.306Z,99792.46
2019-02-09T21:47:29.074Z,99793.61
2019-02-09T21:49:56.925Z,99791.41
2019-02-09T21:52:24.741Z,99794.55
2019-02-09T21:54:52.544Z,99796.08
2019-02-09T21:57:20.347Z,99799.75
2019-02-09T21:59:48.137Z,99808.73
2019-02-09T22:02:15.943Z,99784.84
2019-02-09T22:04:43.723Z,99804.94
2019-02-09T22:07:11.542Z,99795.67
2019-02-09T22:09:39.330Z,99792.39
2019-02-09T22:12:07.195Z,99791.94
2019-02-09T22:14:35.133Z,99794.85
2019-02-09T22:17:03.067Z,99796.30
2019-02-09T22:19:30.842Z,99795.47
2019-02-09T22:21:58.873Z,99798.78
2019-02-09T22:24:26.783Z,99796.09
2019-02-09T22:26:54.625Z,99794.36
2019-02-09T22:29:22.510Z,99802.30
2019-02-09T22:31:50.449Z,99803.13
2019-02-09T22:34:18.298Z,99798.91
2019-02-09T22:36:46.124Z,99805.20
2019-02-09T22:39:13.962Z,99799.11
2019-02-09T22:41:48.803Z,99800.33
2019-02-09T22:44:11.456Z,99796.09
2019-02-09T22:46:39.259Z,99796.22
2019-02-09T22:49:07.074Z,99797.44
2019-02-09T22:51:34.863Z,99785.50
2019-02-09T22:54:02.824Z,99796.31
2019-02-09T22:56:30.573Z,99795.27
2019-02-09T22:58:58.319Z,99798.59
2019-02-09T23:01:42.448Z,99793.84
2019-02-09T23:05:04.304Z,99788.49
2019-02-09T23:07:33.622Z,99798.30
2019-02-09T23:10:10.063Z,99808.28
2019-02-09T23:12:37.842Z,99807.05
2019-02-09T23:15:06.174Z,99806.63
2019-02-09T23:17:33.912Z,99808.40
2019-02-09T23:20:01.701Z,99805.70
2019-02-09T23:22:29.462Z,99805.51
2019-02-09T23:24:57.394Z,99809.94
2019-02-09T23:27:25.139Z,99805.19
2019-02-09T23:29:53.046Z,99807.45
2019-02-09T23:32:20.822Z,99802.22
2019-02-09T23:34:48.602Z,99811.05
2019-02-09T23:37:16.394Z,99804.98
2019-02-09T23:39:44.173Z,99800.88
2019-02-09T23:42:11.928Z,99794.27
2019-02-09T23:44:39.865Z,99804.86
2019-02-09T23:47:07.792Z,99810.84
2019-02-09T23:49:35.663Z,99795.61
2019-02-09T23:52:03.454Z,99811.17
2019-02-09T23:54:31.282Z,99807.06
2019-02-09T23:56:58.997Z,99802.84
2019-02-09T23:59:26.807Z,99803.75
